Time;durP1;ratioP1;P1;durP2;ratioP2;P2;SDS_P1;SDS_P2;PMS_P1;PMS_P2;Temp;Humidity;BMP_temperature;BMP_pressure;BME280_temperature;BME280_humidity;BME280_pressure;Samples;Min_cycle;Max_cycle;Signal;HPM_P1;HPM_P2
2023/06/29 01:20:33;;;;;;;66.50;40.42;;;;;;;;;;5325538;23;20131;-80
2023/06/29 01:25:59;;;;;;;61.05;39.78;;;;;;;;;;5320087;23;20069;-73
2023/06/29 01:28:25;;;;;;;59.47;38.25;;;;;;;;;;4909298;29;20395;-73
2023/06/29 01:30:51;;;;;;;67.75;41.75;;;;;;;;;;4897162;29;20400;-73
2023/06/29 01:33:19;;;;;;;60.70;40.53;;;;;;;;;;4916032;29;20047;-74
2023/06/29 01:35:45;;;;;;;65.80;41.20;;;;;;;;;;4901730;29;20118;-72
2023/06/29 01:38:14;;;;;;;66.38;39.97;;;;;;;;;;4916127;29;20058;-73
2023/06/29 01:40:41;;;;;;;74.80;42.08;;;;;;;;;;4919140;29;20171;-73
2023/06/29 01:43:07;;;;;;;70.50;40.45;;;;;;;;;;4918361;29;20050;-73
2023/06/29 01:45:34;;;;;;;72.93;43.17;;;;;;;;;;4901488;29;20138;-73
2023/06/29 01:48:01;;;;;;;67.93;41.60;;;;;;;;;;4916708;29;20054;-73
2023/06/29 01:50:27;;;;;;;71.78;41.15;;;;;;;;;;4900930;29;20059;-73
2023/06/29 01:52:53;;;;;;;69.25;41.55;;;;;;;;;;4918404;29;20078;-72
2023/06/29 01:55:19;;;;;;;62.75;41.30;;;;;;;;;;4917055;29;20194;-72
2023/06/29 01:57:45;;;;;;;80.43;43.05;;;;;;;;;;4912833;29;20039;-73
2023/06/29 02:00:12;;;;;;;62.92;41.63;;;;;;;;;;4917846;29;20134;-73
2023/06/29 02:02:38;;;;;;;67.68;42.03;;;;;;;;;;4916170;29;20055;-73
2023/06/29 02:05:04;;;;;;;68.57;41.55;;;;;;;;;;4916437;29;20130;-72
2023/06/29 02:07:30;;;;;;;67.25;42.42;;;;;;;;;;4912157;29;20408;-73
2023/06/29 02:09:56;;;;;;;67.20;42.22;;;;;;;;;;4912627;29;20047;-73
2023/06/29 02:12:23;;;;;;;69.95;41.85;;;;;;;;;;4916093;29;20557;-73
2023/06/29 02:14:49;;;;;;;68.72;41.10;;;;;;;;;;4914880;29;20047;-73
2023/06/29 02:17:15;;;;;;;65.85;41.33;;;;;;;;;;4913682;29;20047;-73
2023/06/29 02:19:41;;;;;;;64.13;40.33;;;;;;;;;;4900331;29;21787;-72
2023/06/29 02:22:07;;;;;;;61.25;41.53;;;;;;;;;;4905766;29;20684;-72
2023/06/29 02:24:34;;;;;;;63.78;41.83;;;;;;;;;;4917085;29;20051;-73
2023/06/29 02:27:01;;;;;;;70.50;41.17;;;;;;;;;;4887115;29;20061;-72
2023/06/29 02:29:27;;;;;;;75.28;40.95;;;;;;;;;;4872372;29;20119;-72
2023/06/29 02:31:53;;;;;;;62.58;40.47;;;;;;;;;;4885104;29;20059;-72
2023/06/29 02:34:19;;;;;;;68.57;40.22;;;;;;;;;;4885938;29;20540;-72
2023/06/29 02:36:45;;;;;;;69.25;44.03;;;;;;;;;;4917621;29;20040;-72
2023/06/29 02:39:12;;;;;;;67.45;42.42;;;;;;;;;;4901510;29;20052;-73
2023/06/29 02:41:38;;;;;;;68.80;42.95;;;;;;;;;;4903656;29;20514;-72
2023/06/29 02:44:04;;;;;;;71.10;43.60;;;;;;;;;;4881822;29;20043;-73
2023/06/29 02:46:30;;;;;;;71.00;42.60;;;;;;;;;;4901044;29;20103;-73
2023/06/29 02:48:56;;;;;;;62.85;41.97;;;;;;;;;;4902782;29;20115;-74
2023/06/29 02:51:22;;;;;;;64.40;41.28;;;;;;;;;;4903304;29;20039;-74
2023/06/29 02:53:48;;;;;;;68.55;42.88;;;;;;;;;;4890556;29;20052;-72
2023/06/29 02:56:14;;;;;;;68.72;41.63;;;;;;;;;;4886742;29;20138;-73
2023/06/29 02:58:40;;;;;;;69.93;43.60;;;;;;;;;;4897154;29;20050;-73
2023/06/29 03:01:07;;;;;;;72.70;43.13;;;;;;;;;;4880644;29;21708;-74
2023/06/29 03:03:33;;;;;;;70.13;41.53;;;;;;;;;;4884677;29;20044;-74
2023/06/29 03:05:59;;;;;;;71.40;42.22;;;;;;;;;;4885514;29;20095;-73
2023/06/29 03:08:25;;;;;;;69.43;42.75;;;;;;;;;;4882741;29;20048;-73
2023/06/29 03:10:51;;;;;;;70.45;41.90;;;;;;;;;;4882361;29;20111;-73
2023/06/29 03:13:17;;;;;;;68.53;41.03;;;;;;;;;;4860065;29;20126;-74
2023/06/29 03:15:43;;;;;;;68.20;42.83;;;;;;;;;;4874594;29;20087;-73
2023/06/29 03:18:09;;;;;;;68.20;40.95;;;;;;;;;;4901708;29;20495;-74
2023/06/29 03:20:35;;;;;;;64.38;41.40;;;;;;;;;;4870828;29;20452;-73
2023/06/29 03:23:01;;;;;;;64.47;41.47;;;;;;;;;;4874485;29;20052;-72
2023/06/29 03:25:28;;;;;;;75.82;40.47;;;;;;;;;;4884253;29;20060;-72
2023/06/29 03:27:54;;;;;;;66.70;40.97;;;;;;;;;;4884908;29;20139;-72
2023/06/29 03:30:20;;;;;;;68.55;41.53;;;;;;;;;;4889562;29;20079;-73
2023/06/29 03:32:46;;;;;;;71.72;42.33;;;;;;;;;;4903024;29;20114;-73
2023/06/29 03:35:12;;;;;;;65.70;40.30;;;;;;;;;;4899186;29;20146;-72
2023/06/29 03:37:38;;;;;;;67.22;40.00;;;;;;;;;;4904106;29;20051;-73
2023/06/29 03:40:04;;;;;;;64.63;41.78;;;;;;;;;;4874892;29;20104;-72
2023/06/29 03:42:31;;;;;;;63.47;40.67;;;;;;;;;;4902187;29;20047;-72
2023/06/29 03:44:57;;;;;;;62.58;39.50;;;;;;;;;;4898323;29;20782;-73
2023/06/29 03:47:23;;;;;;;67.03;41.92;;;;;;;;;;4899231;29;20127;-73
2023/06/29 03:49:49;;;;;;;63.35;41.35;;;;;;;;;;4882862;29;20052;-73
2023/06/29 03:52:15;;;;;;;67.43;42.70;;;;;;;;;;4882568;29;20054;-72
2023/06/29 03:54:41;;;;;;;64.57;40.97;;;;;;;;;;4898467;29;20055;-73
2023/06/29 03:57:07;;;;;;;60.90;40.08;;;;;;;;;;4884041;29;20072;-72
2023/06/29 03:59:33;;;;;;;58.92;41.78;;;;;;;;;;4889012;29;20055;-73
2023/06/29 04:01:59;;;;;;;64.57;41.17;;;;;;;;;;4886698;29;20040;-73
2023/06/29 04:04:25;;;;;;;64.47;41.05;;;;;;;;;;4893119;29;20059;-73
2023/06/29 04:06:51;;;;;;;68.30;41.70;;;;;;;;;;4886609;29;21034;-73
2023/06/29 04:09:17;;;;;;;64.53;40.95;;;;;;;;;;4885761;29;20052;-73
2023/06/29 04:11:43;;;;;;;63.90;41.58;;;;;;;;;;4887962;29;20079;-72
2023/06/29 04:14:09;;;;;;;63.22;40.38;;;;;;;;;;4879803;29;20587;-72
2023/06/29 04:16:35;;;;;;;70.93;40.60;;;;;;;;;;4886789;29;20484;-73
2023/06/29 04:19:02;;;;;;;76.18;41.83;;;;;;;;;;4902019;29;20565;-73
2023/06/29 04:21:28;;;;;;;67.28;39.92;;;;;;;;;;4898222;29;20503;-73
2023/06/29 04:23:54;;;;;;;69.75;41.33;;;;;;;;;;4870659;29;20047;-73
2023/06/29 04:26:27;;;;;;;67.53;42.85;;;;;;;;;;4883255;29;20115;-72
2023/06/29 04:29:00;;;;;;;67.22;42.63;;;;;;;;;;4899391;29;20143;-72
2023/06/29 04:31:28;;;;;;;70.43;42.50;;;;;;;;;;4898077;29;20060;-73
2023/06/29 04:33:54;;;;;;;62.03;40.53;;;;;;;;;;4901496;29;20055;-73
2023/06/29 04:36:20;;;;;;;62.60;40.42;;;;;;;;;;4883037;29;20055;-74
2023/06/29 04:38:46;;;;;;;60.30;39.88;;;;;;;;;;4881777;29;20052;-73
2023/06/29 04:41:12;;;;;;;60.90;38.42;;;;;;;;;;4866905;29;20604;-73
2023/06/29 04:43:39;;;;;;;55.90;38.10;;;;;;;;;;4891034;29;20054;-72
2023/06/29 04:46:05;;;;;;;64.30;37.80;;;;;;;;;;4871522;29;20054;-73
2023/06/29 04:48:37;;;;;;;63.80;39.92;;;;;;;;;;4897435;29;20048;-73
2023/06/29 04:51:05;;;;;;;59.50;36.28;;;;;;;;;;4871004;29;20392;-73
2023/06/29 04:53:32;;;;;;;53.67;35.17;;;;;;;;;;4884621;29;20063;-73
2023/06/29 04:55:58;;;;;;;55.28;35.33;;;;;;;;;;4882703;29;20043;-73
2023/06/29 04:58:25;;;;;;;54.97;34.35;;;;;;;;;;4901735;29;20094;-73
2023/06/29 05:00:51;;;;;;;51.67;35.33;;;;;;;;;;4868435;29;20040;-73
2023/06/29 05:03:17;;;;;;;50.72;32.97;;;;;;;;;;4883477;29;21717;-73
2023/06/29 05:05:44;;;;;;;54.30;34.55;;;;;;;;;;4885137;29;20480;-73
2023/06/29 05:08:10;;;;;;;46.78;33.40;;;;;;;;;;4886516;29;20062;-74
2023/06/29 05:10:36;;;;;;;51.95;32.75;;;;;;;;;;4881312;29;20145;-72
2023/06/29 05:13:02;;;;;;;49.42;30.98;;;;;;;;;;4886372;29;20051;-72
2023/06/29 05:15:28;;;;;;;44.67;31.73;;;;;;;;;;4889656;29;20052;-72
2023/06/29 05:17:55;;;;;;;44.65;30.92;;;;;;;;;;4908244;29;20047;-73
2023/06/29 05:20:21;;;;;;;46.03;31.52;;;;;;;;;;4881368;29;20991;-73
2023/06/29 05:22:47;;;;;;;48.15;30.65;;;;;;;;;;4902198;29;20047;-74
2023/06/29 05:25:14;;;;;;;47.75;28.48;;;;;;;;;;4901814;29;20127;-74
2023/06/29 05:27:41;;;;;;;41.03;28.52;;;;;;;;;;4885576;29;20063;-74
2023/06/29 05:30:08;;;;;;;39.10;29.27;;;;;;;;;;4885427;29;20161;-74
2023/06/29 05:32:35;;;;;;;40.22;27.65;;;;;;;;;;4885124;29;20095;-74
2023/06/29 05:35:01;;;;;;;43.33;30.00;;;;;;;;;;4884855;29;21094;-74
2023/06/29 05:37:29;;;;;;;41.05;28.42;;;;;;;;;;4885289;29;20044;-73
2023/06/29 05:39:56;;;;;;;40.95;28.00;;;;;;;;;;4905421;29;20512;-73
2023/06/29 05:42:23;;;;;;;40.50;26.35;;;;;;;;;;4879887;29;20154;-73
2023/06/29 05:44:49;;;;;;;43.17;28.58;;;;;;;;;;4885898;29;20953;-73
2023/06/29 05:47:15;;;;;;;38.42;26.20;;;;;;;;;;4885146;29;20059;-73
2023/06/29 05:49:42;;;;;;;38.58;26.25;;;;;;;;;;4884876;29;20098;-73
2023/06/29 05:52:08;;;;;;;35.05;25.83;;;;;;;;;;4886911;29;20054;-73
2023/06/29 05:54:34;;;;;;;39.58;26.35;;;;;;;;;;4887628;29;20059;-74
2023/06/29 05:57:00;;;;;;;34.88;25.40;;;;;;;;;;4880577;29;20054;-73
2023/06/29 05:59:27;;;;;;;38.22;25.70;;;;;;;;;;4895133;29;20221;-73
2023/06/29 06:01:53;;;;;;;36.25;24.92;;;;;;;;;;4883884;29;20059;-74
2023/06/29 06:04:19;;;;;;;38.58;26.35;;;;;;;;;;4904579;29;20068;-73
2023/06/29 06:06:46;;;;;;;39.08;25.75;;;;;;;;;;4887789;29;20071;-73
2023/06/29 06:09:12;;;;;;;39.65;25.38;;;;;;;;;;4887240;29;20099;-73
2023/06/29 06:11:38;;;;;;;34.40;24.38;;;;;;;;;;4887233;29;20468;-74
2023/06/29 06:14:04;;;;;;;35.90;24.25;;;;;;;;;;4886628;29;20048;-74
2023/06/29 06:16:31;;;;;;;32.15;24.42;;;;;;;;;;4885492;29;20551;-74
2023/06/29 06:18:57;;;;;;;34.42;25.95;;;;;;;;;;4881048;29;20052;-74
2023/06/29 06:21:24;;;;;;;39.05;25.42;;;;;;;;;;4871651;29;20044;-74
2023/06/29 06:23:51;;;;;;;36.53;24.60;;;;;;;;;;4882722;29;20047;-74
2023/06/29 06:26:17;;;;;;;36.08;24.13;;;;;;;;;;4882409;29;21165;-74
2023/06/29 06:28:43;;;;;;;37.92;25.10;;;;;;;;;;4883690;29;20048;-73
2023/06/29 06:31:09;;;;;;;33.53;23.60;;;;;;;;;;4899479;29;20039;-73
2023/06/29 06:33:35;;;;;;;34.83;23.15;;;;;;;;;;4882631;29;20047;-73
2023/06/29 06:36:02;;;;;;;34.17;24.52;;;;;;;;;;4871512;29;20035;-73
2023/06/29 06:38:28;;;;;;;32.88;23.33;;;;;;;;;;4868515;29;20050;-74
2023/06/29 06:40:54;;;;;;;32.55;22.90;;;;;;;;;;4880916;29;20048;-75
2023/06/29 06:43:20;;;;;;;31.70;22.50;;;;;;;;;;4866929;29;20682;-73
2023/06/29 06:45:46;;;;;;;31.85;21.40;;;;;;;;;;4884943;29;20114;-74
2023/06/29 06:48:12;;;;;;;31.55;22.20;;;;;;;;;;4884773;29;20058;-74
2023/06/29 06:50:38;;;;;;;36.22;24.10;;;;;;;;;;4902087;29;20082;-74
2023/06/29 06:53:05;;;;;;;31.38;22.55;;;;;;;;;;4883265;29;20047;-74
2023/06/29 06:55:31;;;;;;;34.13;22.75;;;;;;;;;;4903425;29;20488;-74
2023/06/29 06:57:57;;;;;;;32.58;22.02;;;;;;;;;;4865658;29;20050;-75
2023/06/29 07:00:24;;;;;;;33.25;22.35;;;;;;;;;;4881177;29;21029;-73
2023/06/29 07:02:50;;;;;;;33.00;21.70;;;;;;;;;;4880220;29;20055;-75
2023/06/29 07:05:16;;;;;;;35.15;22.73;;;;;;;;;;4901081;29;20111;-74
2023/06/29 07:07:42;;;;;;;33.60;21.67;;;;;;;;;;4898957;29;20047;-74
2023/06/29 07:10:09;;;;;;;38.47;22.00;;;;;;;;;;4884490;29;22179;-73
2023/06/29 07:12:36;;;;;;;36.00;22.98;;;;;;;;;;4883325;29;20130;-74
2023/06/29 07:15:02;;;;;;;28.17;20.88;;;;;;;;;;4886449;29;20518;-73
2023/06/29 07:17:30;;;;;;;29.38;21.75;;;;;;;;;;4904141;29;20183;-74
2023/06/29 07:19:56;;;;;;;30.70;22.45;;;;;;;;;;4898794;29;20048;-74
2023/06/29 07:22:22;;;;;;;30.15;21.95;;;;;;;;;;4921663;29;20047;-73
2023/06/29 07:24:48;;;;;;;35.92;21.77;;;;;;;;;;4901872;29;20083;-74
2023/06/29 07:27:14;;;;;;;31.23;21.92;;;;;;;;;;4888465;29;20063;-73
2023/06/29 07:29:44;;;;;;;33.03;22.92;;;;;;;;;;4905197;29;20078;-73
2023/06/29 07:32:10;;;;;;;32.38;23.02;;;;;;;;;;4905692;29;20048;-75
2023/06/29 07:34:37;;;;;;;34.03;22.83;;;;;;;;;;4920021;29;20133;-73
2023/06/29 07:37:03;;;;;;;36.00;22.88;;;;;;;;;;4874452;29;20101;-73
2023/06/29 07:39:29;;;;;;;33.70;22.40;;;;;;;;;;4884762;29;22117;-73
2023/06/29 07:41:55;;;;;;;31.70;21.42;;;;;;;;;;4881714;29;20116;-74
2023/06/29 07:44:21;;;;;;;32.35;21.73;;;;;;;;;;4884202;29;20039;-74
2023/06/29 07:46:47;;;;;;;34.45;21.90;;;;;;;;;;4885490;29;20400;-74
2023/06/29 07:49:13;;;;;;;30.95;22.30;;;;;;;;;;4903790;29;20052;-75
2023/06/29 07:51:39;;;;;;;33.22;21.88;;;;;;;;;;4887449;29;20412;-75
2023/06/29 07:54:06;;;;;;;31.77;22.02;;;;;;;;;;4885639;29;20052;-74
2023/06/29 07:56:33;;;;;;;34.47;22.67;;;;;;;;;;4870638;29;20055;-74
2023/06/29 07:58:59;;;;;;;33.85;21.77;;;;;;;;;;4903151;29;20468;-74
2023/06/29 08:01:25;;;;;;;32.97;22.67;;;;;;;;;;4888022;29;20042;-74
2023/06/29 08:03:51;;;;;;;38.70;23.48;;;;;;;;;;4887056;29;20472;-74
2023/06/29 08:06:17;;;;;;;33.25;21.92;;;;;;;;;;4881002;29;20087;-74
2023/06/29 08:08:43;;;;;;;30.33;22.50;;;;;;;;;;4884139;29;20488;-74
2023/06/29 08:11:14;;;;;;;33.97;23.02;;;;;;;;;;4886093;29;20399;-75
2023/06/29 08:13:40;;;;;;;36.03;23.98;;;;;;;;;;4902678;29;20511;-74
2023/06/29 08:16:06;;;;;;;35.90;23.88;;;;;;;;;;4904088;29;20054;-74
2023/06/29 08:18:32;;;;;;;32.88;23.88;;;;;;;;;;4904677;29;20435;-74
2023/06/29 08:20:58;;;;;;;35.25;23.10;;;;;;;;;;4901983;29;20127;-75
2023/06/29 08:23:24;;;;;;;36.28;23.42;;;;;;;;;;4885079;29;20059;-73
2023/06/29 08:25:51;;;;;;;32.28;23.35;;;;;;;;;;4884677;29;20060;-74
2023/06/29 08:28:17;;;;;;;38.03;24.55;;;;;;;;;;4886877;29;21617;-75
2023/06/29 08:30:43;;;;;;;40.78;23.35;;;;;;;;;;4882265;29;20760;-74
2023/06/29 08:33:09;;;;;;;39.30;25.10;;;;;;;;;;4902138;29;20134;-73
2023/06/29 08:35:35;;;;;;;32.75;23.88;;;;;;;;;;4884837;29;20055;-74
2023/06/29 08:38:01;;;;;;;38.78;24.42;;;;;;;;;;4900059;29;20039;-72
2023/06/29 08:40:31;;;;;;;39.80;24.23;;;;;;;;;;4875662;29;20715;-70
2023/06/29 08:42:57;;;;;;;37.70;25.17;;;;;;;;;;4898465;29;20380;-77
2023/06/29 08:45:23;;;;;;;37.03;24.70;;;;;;;;;;4868445;29;20097;-73
2023/06/29 08:47:53;;;;;;;46.53;24.20;;;;;;;;;;4883302;29;20083;-80
2023/06/29 08:50:21;;;;;;;36.95;24.95;;;;;;;;;;4884081;29;20598;-76
2023/06/29 08:52:49;;;;;;;37.78;24.48;;;;;;;;;;4869635;29;20055;-77
2023/06/29 08:55:15;;;;;;;37.25;24.35;;;;;;;;;;4870914;29;20136;-75
2023/06/29 08:57:41;;;;;;;35.38;24.73;;;;;;;;;;4908428;29;20551;-75
2023/06/29 09:00:08;;;;;;;39.38;26.45;;;;;;;;;;4894760;29;20051;-76
2023/06/29 09:02:35;;;;;;;36.83;25.55;;;;;;;;;;4895585;29;20048;-75
2023/06/29 09:05:02;;;;;;;37.92;26.95;;;;;;;;;;4875907;29;20127;-75
2023/06/29 09:07:28;;;;;;;37.83;26.15;;;;;;;;;;4885043;29;20043;-73
2023/06/29 09:09:55;;;;;;;34.67;26.15;;;;;;;;;;4884345;29;20566;-74
2023/06/29 09:12:22;;;;;;;39.25;27.05;;;;;;;;;;4900860;29;20171;-75
2023/06/29 09:14:48;;;;;;;34.33;24.25;;;;;;;;;;4883879;29;20055;-76
2023/06/29 09:17:15;;;;;;;36.83;25.27;;;;;;;;;;4884222;29;20058;-75
2023/06/29 09:19:42;;;;;;;35.85;24.80;;;;;;;;;;4898501;29;20075;-75
2023/06/29 09:22:08;;;;;;;42.22;25.77;;;;;;;;;;4899472;29;20052;-75
2023/06/29 09:24:35;;;;;;;37.97;25.80;;;;;;;;;;4890765;29;20036;-75
2023/06/29 09:27:04;;;;;;;34.45;25.00;;;;;;;;;;4896272;29;20060;-75
2023/06/29 09:29:30;;;;;;;39.42;25.33;;;;;;;;;;4884780;29;20058;-75
2023/06/29 09:31:56;;;;;;;38.67;25.60;;;;;;;;;;4866593;29;20539;-75
2023/06/29 09:34:26;;;;;;;32.55;23.38;;;;;;;;;;4880146;29;20107;-75
2023/06/29 09:36:53;;;;;;;34.97;24.38;;;;;;;;;;4878416;29;20055;-74
2023/06/29 09:39:19;;;;;;;32.88;23.50;;;;;;;;;;4899063;29;20497;-74
2023/06/29 09:41:45;;;;;;;38.35;24.20;;;;;;;;;;4880794;29;20656;-76
2023/06/29 09:44:11;;;;;;;33.58;24.92;;;;;;;;;;4880305;29;20082;-75
2023/06/29 09:46:41;;;;;;;31.15;23.45;;;;;;;;;;4898799;29;20048;-75
2023/06/29 09:49:10;;;;;;;37.67;25.60;;;;;;;;;;4881194;29;20063;-76
2023/06/29 09:51:38;;;;;;;35.15;24.70;;;;;;;;;;4881947;29;20048;-75
2023/06/29 09:54:04;;;;;;;36.88;24.17;;;;;;;;;;4881747;29;20138;-72
2023/06/29 09:56:33;;;;;;;35.13;23.75;;;;;;;;;;4879938;29;20044;-75
2023/06/29 09:59:02;;;;;;;32.78;22.85;;;;;;;;;;4881809;29;20083;-75
2023/06/29 10:01:31;;;;;;;38.97;24.00;;;;;;;;;;4880168;29;20129;-75
2023/06/29 10:03:57;;;;;;;33.08;23.77;;;;;;;;;;4891130;29;20520;-75
2023/06/29 10:06:33;;;;;;;31.25;23.80;;;;;;;;;;4877258;29;20040;-75
2023/06/29 10:09:00;;;;;;;35.65;23.95;;;;;;;;;;4864287;29;20445;-75
2023/06/29 10:11:29;;;;;;;34.40;23.90;;;;;;;;;;4865961;29;20051;-75
2023/06/29 10:14:00;;;;;;;39.30;25.25;;;;;;;;;;4881489;29;20039;-75
2023/06/29 10:16:26;;;;;;;32.92;22.67;;;;;;;;;;4880192;29;20048;-75
2023/06/29 10:18:55;;;;;;;33.85;25.02;;;;;;;;;;4898799;29;20095;-75
2023/06/29 10:21:21;;;;;;;36.45;26.00;;;;;;;;;;4888148;29;20044;-75
2023/06/29 10:23:48;;;;;;;34.78;24.27;;;;;;;;;;4880792;29;20040;-75
2023/06/29 10:26:14;;;;;;;36.83;25.08;;;;;;;;;;4879041;29;20060;-76
2023/06/29 10:28:41;;;;;;;34.95;24.38;;;;;;;;;;4879204;29;21829;-76
2023/06/29 10:31:07;;;;;;;31.50;23.27;;;;;;;;;;4879076;29;20130;-75
2023/06/29 10:33:45;;;;;;;33.78;25.33;;;;;;;;;;4863645;29;20122;-75
2023/06/29 10:36:13;;;;;;;31.73;24.25;;;;;;;;;;4883370;29;20052;-75
2023/06/29 10:38:39;;;;;;;33.70;24.20;;;;;;;;;;4879135;29;20776;-75
2023/06/29 10:41:09;;;;;;;36.78;25.00;;;;;;;;;;4897836;29;20520;-74
2023/06/29 10:43:53;;;;;;;35.90;25.98;;;;;;;;;;4879761;29;20079;-75
2023/06/29 10:46:39;;;;;;;36.10;26.25;;;;;;;;;;4859404;29;20079;-74
2023/06/29 10:49:08;;;;;;;34.55;24.60;;;;;;;;;;4878067;29;20051;-75
2023/06/29 10:51:34;;;;;;;38.75;26.25;;;;;;;;;;4878855;29;20059;-75
2023/06/29 10:54:02;;;;;;;35.97;25.33;;;;;;;;;;4879629;29;20744;-75
2023/06/29 10:56:29;;;;;;;38.88;25.75;;;;;;;;;;4856425;29;20050;-74
2023/06/29 10:58:55;;;;;;;35.28;26.13;;;;;;;;;;4890271;29;20052;-75
2023/06/29 11:01:22;;;;;;;40.05;25.85;;;;;;;;;;4870326;29;20127;-75
2023/06/29 11:03:48;;;;;;;39.80;27.60;;;;;;;;;;4886016;29;20047;-75
2023/06/29 11:06:14;;;;;;;37.13;27.83;;;;;;;;;;4902117;29;20054;-74
2023/06/29 11:08:40;;;;;;;38.38;28.25;;;;;;;;;;4886976;29;20119;-74
2023/06/29 11:11:14;;;;;;;39.13;29.17;;;;;;;;;;4887801;29;20488;-75
2023/06/29 11:13:40;;;;;;;35.47;26.92;;;;;;;;;;4893233;29;20060;-75
2023/06/29 11:16:06;;;;;;;33.65;26.83;;;;;;;;;;4887582;29;20123;-72
2023/06/29 11:18:32;;;;;;;32.22;25.60;;;;;;;;;;4895326;29;20404;-75
2023/06/29 11:21:00;;;;;;;38.08;27.02;;;;;;;;;;4879078;29;20436;-74
2023/06/29 11:23:26;;;;;;;37.25;26.00;;;;;;;;;;4905297;29;20081;-74
2023/06/29 11:25:52;;;;;;;43.92;26.58;;;;;;;;;;4902539;29;20075;-74
2023/06/29 11:28:18;;;;;;;34.22;24.98;;;;;;;;;;4894553;29;20508;-74
2023/06/29 11:30:44;;;;;;;32.03;24.58;;;;;;;;;;4886257;29;20139;-73
2023/06/29 11:33:11;;;;;;;34.33;24.38;;;;;;;;;;4892551;29;20428;-73
2023/06/29 11:35:37;;;;;;;30.83;23.80;;;;;;;;;;4904149;29;20087;-74
2023/06/29 11:38:03;;;;;;;31.13;24.35;;;;;;;;;;4887488;29;20071;-74
2023/06/29 11:40:30;;;;;;;33.08;24.58;;;;;;;;;;4887709;29;20048;-73
2023/06/29 11:42:56;;;;;;;34.47;23.90;;;;;;;;;;4899661;29;20396;-74
2023/06/29 11:45:23;;;;;;;37.83;26.17;;;;;;;;;;4904544;29;20043;-74
2023/06/29 11:47:56;;;;;;;39.08;27.90;;;;;;;;;;4906153;29;20386;-74
2023/06/29 11:50:23;;;;;;;31.47;24.63;;;;;;;;;;4887137;29;20075;-74
2023/06/29 11:52:49;;;;;;;36.60;27.52;;;;;;;;;;4887223;29;20087;-74
2023/06/29 11:55:16;;;;;;;40.03;28.08;;;;;;;;;;4888109;29;20051;-75
2023/06/29 11:57:43;;;;;;;34.17;27.60;;;;;;;;;;4903822;29;20531;-75
2023/06/29 12:00:12;;;;;;;34.08;26.67;;;;;;;;;;4885997;29;20048;-75
2023/06/29 12:02:41;;;;;;;39.60;28.35;;;;;;;;;;4889029;29;20055;-75
2023/06/29 12:05:08;;;;;;;37.75;28.95;;;;;;;;;;4887985;29;20081;-75
2023/06/29 12:07:44;;;;;;;39.28;29.67;;;;;;;;;;4887187;29;20284;-74
2023/06/29 12:10:14;;;;;;;41.05;29.50;;;;;;;;;;4904447;29;20150;-73
2023/06/29 12:12:55;;;;;;;41.45;28.85;;;;;;;;;;4886585;29;20048;-73
2023/06/29 12:15:25;;;;;;;38.75;30.17;;;;;;;;;;4891321;29;20062;-74
2023/06/29 12:17:53;;;;;;;43.67;31.40;;;;;;;;;;4889137;29;20462;-73
2023/06/29 12:20:22;;;;;;;39.72;30.25;;;;;;;;;;4888479;29;20348;-74
2023/06/29 12:22:50;;;;;;;38.72;30.27;;;;;;;;;;4879369;29;20048;-75
2023/06/29 12:25:18;;;;;;;43.63;30.48;;;;;;;;;;4907406;29;20591;-74
2023/06/29 12:27:44;;;;;;;37.20;29.83;;;;;;;;;;4889372;29;20556;-75
2023/06/29 12:30:14;;;;;;;38.95;28.35;;;;;;;;;;4890656;29;20170;-74
2023/06/29 12:32:40;;;;;;;35.42;29.38;;;;;;;;;;4893234;29;20048;-75
2023/06/29 12:35:07;;;;;;;40.72;28.48;;;;;;;;;;4875103;29;20052;-72
2023/06/29 12:37:33;;;;;;;39.38;29.02;;;;;;;;;;4908721;29;20047;-74
2023/06/29 12:39:59;;;;;;;35.90;27.88;;;;;;;;;;4891409;29;20056;-74
2023/06/29 12:42:25;;;;;;;40.65;28.58;;;;;;;;;;4889526;29;20701;-74
2023/06/29 12:44:51;;;;;;;35.53;27.35;;;;;;;;;;4905598;29;20044;-74
2023/06/29 12:47:18;;;;;;;35.70;27.92;;;;;;;;;;4888406;29;20143;-74
2023/06/29 12:49:45;;;;;;;34.88;26.77;;;;;;;;;;4882171;29;20384;-74
2023/06/29 12:52:11;;;;;;;35.40;27.77;;;;;;;;;;4890483;29;21822;-74
2023/06/29 12:54:38;;;;;;;38.50;26.33;;;;;;;;;;4898422;29;20143;-73
2023/06/29 12:57:04;;;;;;;34.75;27.52;;;;;;;;;;4899961;29;20115;-73
2023/06/29 12:59:30;;;;;;;36.50;29.10;;;;;;;;;;4888250;29;20051;-74
2023/06/29 13:02:04;;;;;;;35.60;27.70;;;;;;;;;;4891750;29;20074;-75
2023/06/29 13:04:30;;;;;;;36.28;26.55;;;;;;;;;;4910329;29;20052;-74
2023/06/29 13:06:58;;;;;;;34.70;27.45;;;;;;;;;;4911039;29;20205;-73
2023/06/29 13:09:24;;;;;;;37.08;27.67;;;;;;;;;;4909144;29;20109;-75
2023/06/29 13:11:50;;;;;;;34.25;26.48;;;;;;;;;;4906409;29;20044;-74
2023/06/29 13:14:16;;;;;;;35.45;28.13;;;;;;;;;;4890140;29;21683;-75
2023/06/29 13:16:42;;;;;;;39.47;29.20;;;;;;;;;;4890178;29;20473;-75
2023/06/29 13:19:08;;;;;;;37.85;28.60;;;;;;;;;;4889238;29;21428;-74
2023/06/29 13:21:35;;;;;;;36.45;27.02;;;;;;;;;;4888405;29;20040;-74
2023/06/29 13:24:01;;;;;;;35.35;28.08;;;;;;;;;;4875429;29;20054;-74
2023/06/29 13:26:27;;;;;;;38.63;27.65;;;;;;;;;;4881732;29;20060;-74
2023/06/29 13:28:54;;;;;;;39.22;28.85;;;;;;;;;;4872120;29;20531;-73
2023/06/29 13:31:20;;;;;;;34.80;28.00;;;;;;;;;;4904652;29;20058;-73
2023/06/29 13:33:46;;;;;;;38.33;28.20;;;;;;;;;;4892461;29;20052;-72
2023/06/29 13:36:12;;;;;;;36.28;27.83;;;;;;;;;;4879093;29;20044;-73
2023/06/29 13:38:38;;;;;;;37.95;28.20;;;;;;;;;;4886054;29;20143;-75
2023/06/29 13:41:04;;;;;;;35.40;27.20;;;;;;;;;;4905091;29;20048;-75
2023/06/29 13:43:30;;;;;;;39.60;27.35;;;;;;;;;;4879247;29;20052;-74
2023/06/29 13:45:57;;;;;;;36.05;27.48;;;;;;;;;;4890297;29;20462;-74
2023/06/29 13:48:23;;;;;;;31.83;25.30;;;;;;;;;;4888236;29;20044;-75
2023/06/29 13:50:50;;;;;;;31.63;25.05;;;;;;;;;;4889494;29;20055;-74
2023/06/29 13:53:16;;;;;;;32.75;23.63;;;;;;;;;;4878470;29;20048;-75
2023/06/29 13:55:42;;;;;;;34.72;26.20;;;;;;;;;;4888895;29;20050;-74
2023/06/29 13:58:09;;;;;;;35.88;25.77;;;;;;;;;;4889358;29;20047;-75
2023/06/29 14:00:38;;;;;;;33.00;24.52;;;;;;;;;;4888621;29;20071;-75
2023/06/29 14:03:04;;;;;;;35.88;24.30;;;;;;;;;;4887105;29;20079;-75
2023/06/29 14:05:30;;;;;;;30.05;23.33;;;;;;;;;;4889442;29;20421;-73
2023/06/29 14:07:56;;;;;;;31.08;21.40;;;;;;;;;;4904748;29;20054;-73
2023/06/29 14:10:24;;;;;;;25.25;14.77;;;;;;;;;;4889788;29;20073;-75
2023/06/29 14:12:50;;;;;;;21.70;13.40;;;;;;;;;;4889276;29;20574;-75
2023/06/29 14:15:17;;;;;;;27.38;17.00;;;;;;;;;;4905856;29;20055;-75
2023/06/29 14:17:43;;;;;;;40.03;22.85;;;;;;;;;;4880982;29;20044;-78
2023/06/29 14:20:09;;;;;;;40.58;25.92;;;;;;;;;;4879873;29;20147;-74
2023/06/29 14:22:35;;;;;;;47.65;29.45;;;;;;;;;;4876399;29;20040;-75
2023/06/29 14:25:02;;;;;;;48.13;27.15;;;;;;;;;;4897015;29;20952;-75
2023/06/29 14:27:28;;;;;;;50.20;29.50;;;;;;;;;;4863711;29;20066;-74
2023/06/29 14:29:54;;;;;;;49.97;29.05;;;;;;;;;;4892883;29;20060;-74
2023/06/29 14:32:20;;;;;;;37.42;27.52;;;;;;;;;;4884044;29;20222;-73
2023/06/29 14:34:48;;;;;;;36.50;25.70;;;;;;;;;;4883622;29;20047;-74
2023/06/29 14:37:14;;;;;;;42.33;26.08;;;;;;;;;;4882041;29;20058;-73
2023/06/29 14:39:40;;;;;;;36.95;25.58;;;;;;;;;;4897097;29;20091;-74
2023/06/29 14:42:07;;;;;;;43.97;28.05;;;;;;;;;;4872307;29;20564;-74
2023/06/29 14:44:33;;;;;;;48.58;30.27;;;;;;;;;;4877068;29;22137;-75
2023/06/29 14:46:59;;;;;;;49.63;30.83;;;;;;;;;;4867042;29;20097;-74
2023/06/29 14:49:25;;;;;;;53.78;31.20;;;;;;;;;;4885071;29;20135;-75
2023/06/29 14:51:51;;;;;;;55.10;32.75;;;;;;;;;;4899461;29;20103;-75
2023/06/29 14:54:18;;;;;;;53.20;32.42;;;;;;;;;;4878611;29;20621;-74
2023/06/29 14:56:44;;;;;;;50.88;31.48;;;;;;;;;;4881007;29;20047;-74
2023/06/29 14:59:11;;;;;;;53.83;31.52;;;;;;;;;;4881238;29;20059;-74
2023/06/29 15:01:37;;;;;;;50.42;31.95;;;;;;;;;;4879278;29;20181;-74
2023/06/29 15:04:04;;;;;;;55.25;32.97;;;;;;;;;;4881661;29;20076;-75
2023/06/29 15:06:32;;;;;;;51.88;31.52;;;;;;;;;;4898868;29;20143;-75
2023/06/29 15:08:58;;;;;;;51.95;30.67;;;;;;;;;;4879515;29;20063;-76
2023/06/29 15:11:24;;;;;;;46.70;29.58;;;;;;;;;;4870543;29;20096;-75
2023/06/29 15:13:50;;;;;;;35.80;24.38;;;;;;;;;;4896746;29;20418;-74
2023/06/29 15:16:16;;;;;;;34.15;23.05;;;;;;;;;;4878830;29;20135;-74
2023/06/29 15:18:42;;;;;;;33.10;20.58;;;;;;;;;;4878228;29;20847;-74
2023/06/29 15:21:09;;;;;;;29.00;19.73;;;;;;;;;;4881148;29;20208;-75
2023/06/29 15:23:35;;;;;;;28.77;18.92;;;;;;;;;;4880703;29;20620;-75
2023/06/29 15:26:01;;;;;;;25.38;17.48;;;;;;;;;;4883849;29;20580;-74
2023/06/29 15:28:27;;;;;;;27.98;17.30;;;;;;;;;;4864293;29;20052;-76
2023/06/29 15:30:53;;;;;;;26.98;16.95;;;;;;;;;;4881633;29;20055;-75
2023/06/29 15:33:19;;;;;;;42.17;16.90;;;;;;;;;;4884159;29;20051;-75
2023/06/29 15:35:45;;;;;;;24.17;15.20;;;;;;;;;;4902193;29;20083;-75